Nearby METAR Reports

 

KGSP - Greer/Spartansbg, South Carolina, USA
Distance from station: E 4mi, 6km
Updated: Sun, 15-Sep-2019 4:53am EDT
Clear
Clear
 Wind from calm
Wind: Calm
Temperature: 70°F , 21°C
Dew Point: 68°F , 20°C
Humidity: 94%
Barometer: 30.16 inHg , 1021.3 hPa
Clouds: Clear
Visibility: 7 miles , 11 km
2019/09/15 08:53 KGSP 150853Z AUTO 00000KT 7SM CLR 21/20 A3016 RMK AO2 SLP202 T02110200 56012
KGMU - Greenville, South Carolina, USA
Distance from station: SW 5mi, 8km
Updated: Sun, 15-Sep-2019 4:53am EDT
Clear
Clear
 Wind from calm
Wind: Calm
Temperature: 73°F , 23°C
Dew Point: 70°F , 21°C
Humidity: 89%
Barometer: 30.17 inHg , 1021.7 hPa
Clouds: Clear
Visibility: 10 miles , 16 km
2019/09/15 08:53 KGMU 150853Z AUTO 00000KT 10SM CLR 23/21 A3017 RMK AO2 SLP205 T02280211 56012
 
KGYH - Greenville, South Carolina, USA
Distance from station: SSW 11mi, 18km
Updated: Sun, 15-Sep-2019 5:35am EDT
Mist, Clear
Mist, Clear
 Wind from calm
Wind: Calm
Temperature: 68°F , 20°C
Dew Point: 66°F , 19°C
Humidity: 94%
Barometer: 30.16 inHg , 1021.3 hPa
Summary: Mist
Clouds: Clear
Visibility: 4 miles , 6 km
2019/09/15 09:35 KGYH 150935Z AUTO 00000KT 4SM BR CLR 20/19 A3016 RMK AO2 LTG DSNT N
KSPA - Spartanburg, South Carolina, USA
Distance from station: E 20mi, 32km
Updated: Sun, 15-Sep-2019 5:35am EDT
Clear
Clear
 Wind from calm
Wind: Calm
Temperature: 70°F , 21°C
Dew Point: 68°F , 20°C
Humidity: 94%
Barometer: 30.16 inHg , 1021.3 hPa
Clouds: Clear
Visibility: 10 miles , 16 km
2019/09/15 09:35 KSPA 150935Z AUTO 00000KT 10SM CLR 21/20 A3016 RMK AO2
 
KLQK - Pickens, South Carolina, USA
Distance from station: WSW 24mi, 39km
Updated: Sun, 15-Sep-2019 5:35am EDT
Mist, Clear
Mist, Clear
 Wind from calm
Wind: Calm
Temperature: 66°F , 19°C
Dew Point: 66°F , 19°C
Humidity: 100%
Barometer: 30.16 inHg , 1021.3 hPa
Summary: Mist
Clouds: Clear
Visibility: 4 miles , 6 km
2019/09/15 09:35 KLQK 150935Z AUTO 00000KT 4SM BR CLR 19/19 A3016 RMK AO2 T01870187 PNO
KLUX - Laurens, South Carolina, USA
Distance from station: SE 33mi, 54km
Updated: Sun, 15-Sep-2019 5:35am EDT
Mist, Clear
Mist, Clear
 Wind from NNW
Wind: NNW 3 mph , 6 km/h
Temperature: 68°F , 20°C
Dew Point: 68°F , 20°C
Humidity: 100%
Barometer: 30.15 inHg , 1021 hPa
Summary: Mist
Clouds: Clear
Visibility: 4 miles , 6 km
2019/09/15 09:35 KLUX 150935Z AUTO 34003KT 4SM BR CLR 20/20 A3015 RMK AO2
 
KAND - Anderson, South Carolina, USA
Distance from station: SW 37mi, 59km
Updated: Sun, 15-Sep-2019 4:56am EDT
Clear
Clear
 Wind from calm
Wind: Calm
Temperature: 72°F , 22°C
Dew Point: 70°F , 21°C
Humidity: 94%
Barometer: 30.16 inHg , 1021.3 hPa
Clouds: Clear
Visibility: 10 miles , 16 km
2019/09/15 08:56 KAND 150856Z AUTO 00000KT 10SM CLR 22/21 A3016 RMK AO2 SLP201 T02170206 56010
KCEU - Clemson, South Carolina, USA
Distance from station: WSW 37mi, 60km
Updated: Sun, 15-Sep-2019 4:54am EDT
Clear
Clear
 Wind from N
Wind: N 3 mph , 6 km/h
Temperature: 70°F , 21°C
Dew Point: 70°F , 21°C
Humidity: 100%
Barometer: 30.17 inHg , 1021.7 hPa
Clouds: Clear
Visibility: 9 miles , 14 km
2019/09/15 08:54 KCEU 150854Z AUTO 35003KT 9SM CLR 21/21 A3017 RMK AO2 SLP204 T02110206 56012
 
KAVL - Asheville, North Carolina, USA
Distance from station: NNW 40mi, 64km
Updated: Sun, 15-Sep-2019 5:43am EDT
Mist, Overcast
Mist, Overcast
 Wind from N
Wind: N 8 mph , 13 km/h
Temperature: 66°F , 19°C
Dew Point: 64°F , 18°C
Humidity: 94%
Barometer: 30.24 inHg , 1024 hPa
Summary: Mist
Clouds: Overcast
Visibility: 2 1/2 miles , 4 km
Cloud details: Overcast 200 ft
2019/09/15 09:43 KAVL 150943Z AUTO 36007KT 2 1/2SM BR OVC002 19/18 A3024 RMK AO2 T01890178
KFQD - Rutherfordton, North Carolina, USA
Distance from station: NNE 41mi, 66km
Updated: Sun, 15-Sep-2019 4:35am EDT
Fog, Overcast
Fog, Overcast
 Wind from calm
Wind: Calm
Temperature: 68°F , 20°C
Dew Point: 68°F , 20°C
Humidity: 100%
Barometer: 30.17 inHg , 1021.7 hPa
Summary: Fog
Clouds: Overcast
Visibility: 1/2 mile , 0.8 km
Cloud details: Overcast 100 ft
2019/09/15 08:35 KFQD 150835Z AUTO 00000KT 1/2SM FG OVC001 20/20 A3017 RMK AO2
 
KGRD - Greenwood, South Carolina, USA
Distance from station: S 45mi, 73km
Updated: Sun, 15-Sep-2019 4:56am EDT
Mist, Clear
Mist, Clear
 Wind from calm
Wind: Calm
Temperature: 68°F , 20°C
Dew Point: 68°F , 20°C
Humidity: 100%
Barometer: 30.16 inHg , 1021.3 hPa
Summary: Mist
Clouds: Clear
Visibility: 5 miles , 8 km
2019/09/15 08:56 KGRD 150856Z AUTO 00000KT 5SM BR CLR 20/20 A3016 RMK AO2 SLP204 T02000200 56012
KEHO - Shelby Muni, North Carolina, USA
Distance from station: ENE 46mi, 74km
Updated: Sun, 15-Sep-2019 4:35am EDT
Mist, Clear
Mist, Clear
 Wind from calm
Wind: Calm
Temperature: 70°F , 21°C
Dew Point: 70°F , 21°C
Humidity: 100%
Barometer: 30.16 inHg , 1021.3 hPa
Summary: Mist
Clouds: Clear
Visibility: 5 miles , 8 km
2019/09/15 08:35 KEHO 150835Z AUTO 00000KT 5SM BR CLR 21/21 A3016 RMK AO2 T02070207